Time;durP1;ratioP1;P1;durP2;ratioP2;P2;SDS_P1;SDS_P2;PMS_P1;PMS_P2;Temp;Humidity;BMP_temperature;BMP_pressure;BME280_temperature;BME280_humidity;BME280_pressure;Samples;Min_cycle;Max_cycle;Signal;HPM_P1;HPM_P2
2021/09/10 00:01:19;;;;;;;19.53;17.53;;;20.60;94.60;;;;;;6128418;23;20414;-88
2021/09/10 00:03:46;;;;;;;21.13;19.03;;;20.40;94.90;;;;;;6148622;23;20406;-88
2021/09/10 00:06:12;;;;;;;19.43;16.00;;;20.30;95.50;;;;;;6145766;23;20417;-87
2021/09/10 00:08:39;;;;;;;18.17;16.57;;;20.40;95.80;;;;;;6150351;23;20471;-88
2021/09/10 00:11:06;;;;;;;18.10;16.10;;;20.30;95.90;;;;;;6150871;23;20394;-87
2021/09/10 00:13:33;;;;;;;18.90;17.00;;;20.20;96.10;;;;;;6152521;23;20414;-87
2021/09/10 00:16:01;;;;;;;17.43;15.90;;;20.20;96.40;;;;;;6151111;23;20441;-88
2021/09/10 00:18:29;;;;;;;16.90;15.20;;;20.20;96.50;;;;;;6145201;23;20449;-87
2021/09/10 00:20:55;;;;;;;19.57;17.60;;;20.20;96.80;;;;;;6129961;23;20411;-88
2021/09/10 00:23:22;;;;;;;19.10;17.20;;;20.10;97.00;;;;;;6130369;23;20415;-89
2021/09/10 00:25:49;;;;;;;18.57;16.97;;;20.00;97.60;;;;;;6128057;23;21048;-88
2021/09/10 00:28:15;;;;;;;18.90;17.20;;;20.10;97.90;;;;;;6133135;23;20465;-91
2021/09/10 00:30:42;;;;;;;19.27;17.47;;;20.00;98.10;;;;;;6162071;23;20396;-91
2021/09/10 00:33:10;;;;;;;19.83;17.93;;;20.10;98.30;;;;;;6163199;23;20399;-91
2021/09/10 00:35:37;;;;;;;18.57;16.67;;;20.00;98.50;;;;;;6161891;23;20411;-91
2021/09/10 00:38:04;;;;;;;30.33;18.90;;;20.00;98.90;;;;;;6157409;23;20449;-90
2021/09/10 00:40:31;;;;;;;20.07;17.50;;;20.00;99.20;;;;;;6161610;23;20449;-91
2021/09/10 00:42:57;;;;;;;17.70;16.10;;;19.90;99.50;;;;;;6163315;23;20801;-90
2021/09/10 00:45:24;;;;;;;19.10;17.20;;;19.80;99.80;;;;;;6168681;23;20411;-90
2021/09/10 00:47:51;;;;;;;18.50;16.63;;;19.80;99.90;;;;;;6174109;23;20465;-90
2021/09/10 00:50:20;;;;;;;18.17;16.30;;;19.80;99.90;;;;;;6160652;23;20413;-90
2021/09/10 00:52:47;;;;;;;21.03;17.13;;;19.80;99.90;;;;;;6161606;23;20395;-89
2021/09/10 00:55:15;;;;;;;21.50;19.23;;;19.80;99.90;;;;;;6164811;23;20416;-91
2021/09/10 00:57:41;;;;;;;19.63;17.53;;;19.80;99.90;;;;;;6156937;23;20445;-90
2021/09/10 01:00:09;;;;;;;20.57;18.40;;;19.90;99.90;;;;;;6157531;23;20417;-90
2021/09/10 01:02:36;;;;;;;17.43;15.83;;;19.80;99.90;;;;;;6156609;23;20426;-89
2021/09/10 01:05:03;;;;;;;19.90;17.97;;;19.90;99.90;;;;;;6157656;23;20406;-91
2021/09/10 01:07:31;;;;;;;17.83;15.93;;;19.90;99.90;;;;;;6159890;23;20408;-90
2021/09/10 01:09:59;;;;;;;17.83;16.23;;;19.90;99.90;;;;;;6160074;23;20432;-90
2021/09/10 01:12:27;;;;;;;19.40;17.30;;;19.90;99.90;;;;;;6159438;23;20888;-91
2021/09/10 01:14:54;;;;;;;19.20;17.20;;;19.90;99.90;;;;;;6159655;23;20403;-91
2021/09/10 01:17:21;;;;;;;18.97;16.80;;;19.90;99.90;;;;;;6160225;23;20483;-91
2021/09/10 01:19:47;;;;;;;20.17;16.50;;;19.80;99.90;;;;;;6159680;23;20420;-91
2021/09/10 01:22:14;;;;;;;19.13;16.90;;;19.90;99.90;;;;;;6159326;23;20424;-91
2021/09/10 01:25:06;;;;;;;21.33;16.73;;;19.90;99.90;;;;;;6159120;23;20477;-91
2021/09/10 01:27:33;;;;;;;19.57;17.03;;;19.80;99.90;;;;;;6158948;23;20472;-90
2021/09/10 01:30:00;;;;;;;22.00;17.20;;;19.80;99.90;;;;;;6158602;23;20405;-91
2021/09/10 01:32:27;;;;;;;18.00;16.40;;;19.80;99.90;;;;;;6163543;23;20419;-89
2021/09/10 01:34:53;;;;;;;18.93;16.83;;;19.80;99.90;;;;;;6162424;23;20392;-91
2021/09/10 01:37:20;;;;;;;20.13;17.07;;;19.90;99.90;;;;;;6163557;23;20437;-91
2021/09/10 01:39:47;;;;;;;17.77;16.00;;;19.80;99.90;;;;;;6158977;23;20769;-91
2021/09/10 01:42:15;;;;;;;19.47;17.60;;;19.80;99.90;;;;;;6175929;23;20405;-90
2021/09/10 01:44:42;;;;;;;21.33;19.13;;;19.90;99.90;;;;;;6184242;23;20385;-88
2021/09/10 01:47:09;;;;;;;20.50;18.60;;;19.90;99.90;;;;;;6161982;23;20410;-91
2021/09/10 01:49:35;;;;;;;18.70;17.00;;;20.00;99.90;;;;;;6162298;23;20434;-90
2021/09/10 01:52:02;;;;;;;19.80;17.43;;;20.00;99.90;;;;;;6175934;23;20465;-89
2021/09/10 01:54:29;;;;;;;19.53;16.33;;;20.00;99.90;;;;;;6173668;23;21012;-90
2021/09/10 01:56:56;;;;;;;19.07;17.17;;;19.90;99.90;;;;;;6160748;23;20477;-91
2021/09/10 01:59:24;;;;;;;22.80;18.27;;;20.00;99.90;;;;;;6160422;23;20434;-90
2021/09/10 02:01:51;;;;;;;17.80;15.93;;;19.90;99.90;;;;;;6161424;23;20420;-90
2021/09/10 02:04:19;;;;;;;21.17;18.90;;;19.80;99.90;;;;;;6165680;23;20486;-89
2021/09/10 02:06:45;;;;;;;20.20;17.97;;;19.70;99.90;;;;;;6170367;23;20412;-90
2021/09/10 02:09:12;;;;;;;22.83;17.70;;;19.70;99.90;;;;;;6183521;23;20495;-88
2021/09/10 02:11:39;;;;;;;21.47;18.20;;;19.70;99.90;;;;;;6184058;23;20468;-89
2021/09/10 02:14:06;;;;;;;19.10;17.03;;;19.70;99.90;;;;;;6173863;23;20410;-91
2021/09/10 02:16:34;;;;;;;20.10;18.20;;;19.70;99.90;;;;;;6160133;23;20398;-90
2021/09/10 02:19:01;;;;;;;19.87;17.87;;;19.70;99.90;;;;;;6160859;23;20990;-91
2021/09/10 02:21:28;;;;;;;20.50;18.37;;;19.60;99.90;;;;;;6166046;23;20423;-90
2021/09/10 02:23:55;;;;;;;21.03;19.03;;;19.60;99.90;;;;;;6168436;23;20403;-90
2021/09/10 02:26:22;;;;;;;21.13;18.90;;;19.50;99.90;;;;;;6158493;23;20416;-90
2021/09/10 02:28:48;;;;;;;20.93;18.70;;;19.30;99.90;;;;;;6159443;23;20515;-91
2021/09/10 02:31:15;;;;;;;21.20;18.97;;;19.30;99.90;;;;;;6157145;23;20417;-91
2021/09/10 02:33:43;;;;;;;21.13;19.10;;;19.30;99.90;;;;;;6156946;23;20417;-91
2021/09/10 02:36:10;;;;;;;20.70;18.40;;;19.30;99.90;;;;;;6164817;23;20413;-90
2021/09/10 02:38:37;;;;;;;21.63;18.70;;;19.30;99.90;;;;;;6173965;23;20448;-90
2021/09/10 02:41:04;;;;;;;23.93;17.70;;;19.30;99.90;;;;;;6169622;23;20413;-91
2021/09/10 02:43:30;;;;;;;21.10;18.13;;;19.30;99.90;;;;;;6161153;23;20974;-89
2021/09/10 02:45:57;;;;;;;18.67;16.87;;;19.40;99.90;;;;;;6166112;23;20409;-90
2021/09/10 02:48:24;;;;;;;20.80;18.67;;;19.40;99.90;;;;;;6168808;23;20512;-91
2021/09/10 02:50:52;;;;;;;18.70;16.97;;;19.40;99.90;;;;;;6165553;23;20411;-90
2021/09/10 02:53:19;;;;;;;18.03;16.03;;;19.50;99.90;;;;;;6161769;23;20809;-91
2021/09/10 02:55:45;;;;;;;18.03;15.77;;;19.50;99.90;;;;;;6159293;23;20433;-91
2021/09/10 02:58:12;;;;;;;18.33;16.63;;;19.40;99.90;;;;;;6157374;23;20447;-91
2021/09/10 03:00:39;;;;;;;18.17;16.27;;;19.40;99.90;;;;;;6176051;23;20416;-90
2021/09/10 03:03:06;;;;;;;18.10;16.40;;;19.40;99.90;;;;;;6158714;23;20412;-91
2021/09/10 03:05:32;;;;;;;18.37;16.60;;;19.40;99.90;;;;;;6158132;23;20396;-90
2021/09/10 03:08:00;;;;;;;20.77;16.40;;;19.40;99.90;;;;;;6163069;23;20512;-91
2021/09/10 03:10:27;;;;;;;18.10;16.50;;;19.50;99.90;;;;;;6158456;23;20427;-91
2021/09/10 03:12:54;;;;;;;18.50;16.70;;;19.40;99.90;;;;;;6167979;23;20403;-90
2021/09/10 03:15:21;;;;;;;16.73;15.23;;;19.40;99.90;;;;;;6167380;23;20411;-90
2021/09/10 03:17:48;;;;;;;17.03;15.43;;;19.40;99.90;;;;;;6160847;23;20970;-90
2021/09/10 03:20:15;;;;;;;23.43;16.43;;;19.40;99.90;;;;;;6160788;23;20404;-91
2021/09/10 03:22:42;;;;;;;19.67;16.47;;;19.50;99.90;;;;;;6161029;23;20415;-89
2021/09/10 03:25:11;;;;;;;17.87;16.07;;;19.50;99.90;;;;;;6183199;23;20421;-90
2021/09/10 03:27:38;;;;;;;19.00;17.30;;;19.50;99.90;;;;;;6182653;23;20468;-88
2021/09/10 03:30:05;;;;;;;18.37;16.67;;;19.50;99.90;;;;;;6182227;23;20466;-89
2021/09/10 03:32:32;;;;;;;17.70;15.90;;;19.50;99.90;;;;;;6183168;23;20480;-90
2021/09/10 03:34:59;;;;;;;19.23;17.43;;;19.50;99.90;;;;;;6172910;23;20409;-91
2021/09/10 03:37:26;;;;;;;19.73;17.77;;;19.50;99.90;;;;;;6158115;23;20403;-91
2021/09/10 03:39:52;;;;;;;18.40;16.40;;;19.40;99.90;;;;;;6158107;23;20394;-91
2021/09/10 03:42:21;;;;;;;18.63;16.83;;;19.40;99.90;;;;;;6159518;23;20939;-90
2021/09/10 03:44:51;;;;;;;19.43;17.17;;;19.40;99.90;;;;;;6182918;23;20401;-89
2021/09/10 03:50:40;;;;;;;16.57;15.00;;;19.30;99.90;;;;;;6115631;23;20451;-91
2021/09/10 03:53:07;;;;;;;16.57;15.07;;;19.30;99.90;;;;;;6162371;23;20487;-91
2021/09/10 03:55:34;;;;;;;17.63;15.97;;;19.30;99.90;;;;;;6170969;23;20396;-91
2021/09/10 03:58:03;;;;;;;18.70;16.90;;;19.30;99.90;;;;;;6163898;23;20441;-91
2021/09/10 04:00:30;;;;;;;17.70;16.00;;;19.40;99.90;;;;;;6157929;23;20405;-91
2021/09/10 04:02:58;;;;;;;18.50;16.90;;;19.30;99.90;;;;;;6160567;23;20813;-90
2021/09/10 04:05:26;;;;;;;15.97;14.47;;;19.20;99.90;;;;;;6162013;23;20448;-91
2021/09/10 04:07:54;;;;;;;24.20;17.13;;;19.10;99.90;;;;;;6165450;23;20419;-89
2021/09/10 04:10:24;;;;;;;18.43;14.63;;;19.10;99.90;;;;;;6166827;23;20416;-92
2021/09/10 04:12:53;;;;;;;18.33;16.50;;;19.10;99.90;;;;;;6161027;23;20415;-92
2021/09/10 04:15:21;;;;;;;18.07;16.37;;;19.00;99.90;;;;;;6160287;23;20511;-91
2021/09/10 04:17:48;;;;;;;18.57;16.90;;;19.10;99.90;;;;;;6157469;23;20444;-91
2021/09/10 04:20:15;;;;;;;19.67;17.60;;;19.10;99.90;;;;;;6156498;23;20965;-90
2021/09/10 04:22:43;;;;;;;21.90;17.83;;;19.00;99.90;;;;;;6157708;23;20436;-91
2021/09/10 04:25:10;;;;;;;18.63;16.93;;;19.00;99.90;;;;;;6156389;23;20918;-91
2021/09/10 04:27:37;;;;;;;19.70;17.77;;;19.00;99.90;;;;;;6157545;23;20400;-91
2021/09/10 04:30:05;;;;;;;19.43;17.73;;;18.90;99.90;;;;;;6156760;23;20829;-91
2021/09/10 04:32:35;;;;;;;18.17;16.47;;;18.90;99.90;;;;;;6157837;23;20494;-90
2021/09/10 04:35:03;;;;;;;18.63;17.00;;;18.90;99.90;;;;;;6159252;23;20396;-89
2021/09/10 04:37:30;;;;;;;18.43;16.73;;;18.80;99.90;;;;;;6162303;23;20412;-91
2021/09/10 04:39:57;;;;;;;22.30;18.40;;;18.90;99.90;;;;;;6177083;23;20456;-90
2021/09/10 04:42:24;;;;;;;20.90;16.43;;;18.80;99.90;;;;;;6179065;23;20397;-89
2021/09/10 04:44:50;;;;;;;18.77;17.07;;;18.80;99.90;;;;;;6172274;23;20828;-89
2021/09/10 04:47:17;;;;;;;17.37;15.87;;;18.70;99.90;;;;;;6184072;23;20399;-92
2021/09/10 04:49:45;;;;;;;17.87;15.97;;;18.70;99.90;;;;;;6179013;23;20458;-93
2021/09/10 04:52:12;;;;;;;19.40;17.23;;;18.70;99.90;;;;;;6177175;23;20431;-92
2021/09/10 04:54:39;;;;;;;21.17;18.87;;;18.70;99.90;;;;;;6171856;23;20941;-85
2021/09/10 04:57:06;;;;;;;19.50;17.60;;;18.60;99.90;;;;;;6163076;23;20411;-84
2021/09/10 04:59:32;;;;;;;25.13;19.87;;;18.60;99.90;;;;;;6174436;23;20446;-84
2021/09/10 05:01:59;;;;;;;22.73;19.00;;;18.70;99.90;;;;;;6167085;23;20790;-88
2021/09/10 05:04:26;;;;;;;24.93;20.97;;;18.70;99.90;;;;;;6160192;23;20411;-87
2021/09/10 05:06:54;;;;;;;22.50;19.43;;;18.60;99.90;;;;;;6161828;23;20408;-88
2021/09/10 05:09:22;;;;;;;23.23;20.30;;;18.60;99.90;;;;;;6159468;23;20422;-88
2021/09/10 05:11:49;;;;;;;24.70;19.23;;;18.60;99.90;;;;;;6163939;23;20412;-89
2021/09/10 05:14:16;;;;;;;26.67;19.77;;;18.60;99.90;;;;;;6170315;23;20499;-90
2021/09/10 05:16:43;;;;;;;24.97;18.50;;;18.60;99.90;;;;;;6163114;23;20421;-89
2021/09/10 05:19:10;;;;;;;19.83;17.30;;;18.70;99.90;;;;;;6163939;23;20427;-86
2021/09/10 05:21:37;;;;;;;21.37;19.23;;;18.70;99.90;;;;;;6174053;23;20405;-88
2021/09/10 05:24:06;;;;;;;22.10;18.60;;;18.80;99.90;;;;;;6159414;23;20402;-87
2021/09/10 05:26:33;;;;;;;20.80;18.10;;;18.80;99.90;;;;;;6164459;23;20411;-87
2021/09/10 05:29:00;;;;;;;21.53;18.80;;;18.80;99.90;;;;;;6171698;23;20428;-87
2021/09/10 05:31:27;;;;;;;22.37;20.00;;;18.90;99.90;;;;;;6168857;23;20415;-87
2021/09/10 05:33:54;;;;;;;26.70;20.00;;;18.90;99.90;;;;;;6166618;23;20452;-87
2021/09/10 05:36:21;;;;;;;22.23;19.20;;;18.90;99.90;;;;;;6162212;23;20413;-88
2021/09/10 05:38:48;;;;;;;22.40;20.17;;;18.90;99.90;;;;;;6170674;23;20448;-88
2021/09/10 05:41:26;;;;;;;19.43;17.53;;;18.90;99.90;;;;;;6162003;23;20403;-91
2021/09/10 05:47:01;;;;;;;19.40;17.37;;;19.00;99.90;;;;;;6159175;23;20405;-88
2021/09/10 05:49:29;;;;;;;18.07;16.20;;;19.00;99.90;;;;;;6159290;23;20414;-90
2021/09/10 05:51:56;;;;;;;19.10;17.17;;;19.00;99.90;;;;;;6172806;23;20408;-88
2021/09/10 05:54:23;;;;;;;19.97;17.87;;;19.10;99.90;;;;;;6176738;23;20404;-88
2021/09/10 05:56:51;;;;;;;19.70;17.70;;;19.10;99.90;;;;;;6167271;23;20411;-88
2021/09/10 05:59:17;;;;;;;19.60;15.50;;;19.00;99.90;;;;;;6165901;23;20777;-89
2021/09/10 06:01:44;;;;;;;19.83;18.00;;;19.10;99.90;;;;;;6162583;23;20397;-88
2021/09/10 06:04:11;;;;;;;21.03;18.77;;;19.10;99.90;;;;;;6158780;23;20406;-89
2021/09/10 06:06:38;;;;;;;21.00;18.90;;;19.20;99.90;;;;;;6158449;23;20427;-89
2021/09/10 06:09:05;;;;;;;19.83;17.70;;;19.20;99.90;;;;;;6159463;23;20497;-89
2021/09/10 06:11:32;;;;;;;22.53;20.33;;;19.20;99.90;;;;;;6158470;23;20738;-89
2021/09/10 06:14:00;;;;;;;22.23;19.40;;;19.30;99.90;;;;;;6159486;23;20411;-88
2021/09/10 06:16:26;;;;;;;21.93;18.53;;;19.40;99.90;;;;;;6158062;23;20490;-87
2021/09/10 06:18:53;;;;;;;21.93;19.73;;;19.50;99.90;;;;;;6167684;23;20469;-89
2021/09/10 06:21:20;;;;;;;19.53;17.57;;;19.40;99.90;;;;;;6157795;23;20398;-89
2021/09/10 06:23:47;;;;;;;20.57;18.60;;;19.50;99.90;;;;;;6157551;23;20415;-88
2021/09/10 06:26:15;;;;;;;20.10;18.20;;;19.50;99.90;;;;;;6158908;23;20458;-88
2021/09/10 06:28:42;;;;;;;20.50;18.40;;;19.50;99.90;;;;;;6158329;23;20451;-90
2021/09/10 06:31:10;;;;;;;23.13;17.50;;;19.60;99.90;;;;;;6158675;23;20895;-90
2021/09/10 06:33:37;;;;;;;21.40;19.20;;;19.60;99.90;;;;;;6159779;23;20498;-91
2021/09/10 06:36:04;;;;;;;25.83;20.77;;;19.50;99.90;;;;;;6173526;23;20459;-91
2021/09/10 06:38:31;;;;;;;21.80;17.80;;;19.60;99.90;;;;;;6183090;23;20452;-91
2021/09/10 06:40:58;;;;;;;21.30;19.00;;;19.60;99.90;;;;;;6166466;23;20776;-90
2021/09/10 06:43:24;;;;;;;19.17;17.50;;;19.70;99.90;;;;;;6160263;23;20393;-90
2021/09/10 06:45:51;;;;;;;17.97;16.33;;;19.70;99.90;;;;;;6158185;23;20422;-91
2021/09/10 06:48:20;;;;;;;19.27;17.20;;;19.70;99.90;;;;;;6159842;23;20449;-90
2021/09/10 06:50:47;;;;;;;18.47;16.67;;;19.80;99.90;;;;;;6157985;23;20422;-90
2021/09/10 06:53:13;;;;;;;19.60;17.70;;;20.00;99.90;;;;;;6160178;23;20415;-90
2021/09/10 06:55:40;;;;;;;19.77;17.83;;;20.00;99.90;;;;;;6162086;23;20405;-91
2021/09/10 06:58:07;;;;;;;17.67;15.97;;;20.10;99.90;;;;;;6157655;23;20440;-90
2021/09/10 07:00:34;;;;;;;19.43;17.53;;;20.20;99.90;;;;;;6157385;23;20445;-90
2021/09/10 07:03:01;;;;;;;17.63;15.80;;;20.40;99.90;;;;;;6158669;23;20748;-90
2021/09/10 07:05:29;;;;;;;18.17;15.40;;;20.50;99.90;;;;;;6158484;23;21057;-90
2021/09/10 07:07:56;;;;;;;20.43;16.27;;;20.70;99.90;;;;;;6157643;23;20436;-90
2021/09/10 07:10:23;;;;;;;18.37;15.60;;;20.90;99.90;;;;;;6157521;23;20399;-90
2021/09/10 07:12:52;;;;;;;17.00;14.10;;;21.00;99.90;;;;;;6159844;23;20413;-90
2021/09/10 07:15:19;;;;;;;16.43;14.73;;;21.20;99.90;;;;;;6164419;23;20421;-90
2021/09/10 07:17:46;;;;;;;15.27;13.50;;;21.30;99.90;;;;;;6176155;23;20394;-91
2021/09/10 07:20:13;;;;;;;16.90;13.60;;;21.40;99.90;;;;;;6165278;23;20952;-89
2021/09/10 07:22:43;;;;;;;14.90;13.70;;;21.60;99.90;;;;;;6179702;23;20403;-91
2021/09/10 07:25:10;;;;;;;16.43;14.73;;;22.00;99.90;;;;;;6178908;23;20429;-91
2021/09/10 07:27:39;;;;;;;20.40;14.97;;;22.30;99.90;;;;;;6163048;23;20446;-90
2021/09/10 07:30:07;;;;;;;15.27;13.73;;;22.90;99.90;;;;;;6159629;23;20509;-90
2021/09/10 07:32:34;;;;;;;15.73;14.27;;;23.10;99.20;;;;;;6158954;23;20413;-90
2021/09/10 07:35:01;;;;;;;15.33;13.40;;;23.10;99.00;;;;;;6158645;23;20791;-90
2021/09/10 07:37:30;;;;;;;15.77;14.00;;;23.10;98.20;;;;;;6165442;23;20398;-90
2021/09/10 07:39:58;;;;;;;15.67;14.27;;;23.10;98.10;;;;;;6169680;23;20448;-90
2021/09/10 07:42:25;;;;;;;15.33;12.73;;;23.20;98.00;;;;;;6161763;23;20451;-90
2021/09/10 07:44:52;;;;;;;14.77;13.27;;;23.50;97.70;;;;;;6169375;23;20418;-89
2021/09/10 07:47:19;;;;;;;15.27;13.67;;;23.90;96.60;;;;;;6179161;23;20477;-92
2021/09/10 07:49:46;;;;;;;12.37;11.23;;;24.10;95.70;;;;;;6172737;23;20454;-91
2021/09/10 07:52:13;;;;;;;17.33;11.30;;;24.50;95.00;;;;;;6166577;23;20412;-90
2021/09/10 07:54:40;;;;;;;13.17;11.80;;;24.50;94.30;;;;;;6183005;23;20479;-92
2021/09/10 07:57:08;;;;;;;13.60;12.20;;;24.50;94.60;;;;;;6182959;23;20394;-92
2021/09/10 07:59:35;;;;;;;12.90;11.80;;;24.70;94.10;;;;;;6170225;23;20751;-90
2021/09/10 08:02:02;;;;;;;13.93;12.63;;;24.90;93.60;;;;;;6161591;23;20418;-91
2021/09/10 08:04:29;;;;;;;12.90;11.87;;;24.50;93.60;;;;;;6161243;23;20422;-90
2021/09/10 08:06:56;;;;;;;13.43;12.33;;;24.40;94.10;;;;;;6159995;23;20447;-90
2021/09/10 08:09:23;;;;;;;12.97;11.77;;;24.20;94.00;;;;;;6157897;23;20434;-90
2021/09/10 08:11:49;;;;;;;13.17;12.03;;;24.20;94.20;;;;;;6158061;23;20415;-91
2021/09/10 08:14:19;;;;;;;14.77;12.97;;;24.40;94.10;;;;;;6159800;23;20395;-90
2021/09/10 08:16:46;;;;;;;14.93;13.43;;;24.40;94.00;;;;;;6159219;23;20415;-90
2021/09/10 08:19:14;;;;;;;14.43;13.07;;;24.40;94.00;;;;;;6159026;23;20442;-90
2021/09/10 08:21:41;;;;;;;13.10;11.73;;;24.50;93.60;;;;;;6159450;23;20474;-90
2021/09/10 08:24:11;;;;;;;11.87;10.77;;;24.80;93.60;;;;;;6160730;23;20455;-90
2021/09/10 08:26:38;;;;;;;14.23;10.60;;;24.90;93.00;;;;;;6162304;23;20387;-91
2021/09/10 08:29:05;;;;;;;11.30;10.17;;;25.20;92.50;;;;;;6160636;23;20502;-91
2021/09/10 08:31:34;;;;;;;12.70;11.43;;;25.70;91.70;;;;;;6160168;23;20478;-91
2021/09/10 08:34:02;;;;;;;12.37;11.27;;;26.80;91.10;;;;;;6159982;23;20417;-90
2021/09/10 08:36:32;;;;;;;10.97;10.07;;;27.50;88.60;;;;;;6160436;23;20430;-90
2021/09/10 08:38:59;;;;;;;11.50;10.40;;;28.10;85.10;;;;;;6159162;23;20474;-90
2021/09/10 08:41:28;;;;;;;11.27;10.10;;;28.50;83.20;;;;;;6161894;23;20395;-91
2021/09/10 08:43:59;;;;;;;11.90;10.70;;;30.00;78.20;;;;;;6162561;23;20454;-91
2021/09/10 08:46:25;;;;;;;12.10;10.37;;;31.90;69.50;;;;;;6169481;23;20402;-91
2021/09/10 08:48:54;;;;;;;9.07;8.27;;;31.80;66.30;;;;;;6164491;23;20490;-91
2021/09/10 08:51:25;;;;;;;9.27;8.47;;;31.40;64.10;;;;;;6161019;23;20422;-90
2021/09/10 08:53:52;;;;;;;9.37;8.37;;;31.50;64.60;;;;;;6160803;23;20417;-90
2021/09/10 08:56:21;;;;;;;8.93;8.23;;;31.40;63.50;;;;;;6162765;23;20441;-90
2021/09/10 08:58:48;;;;;;;7.97;7.30;;;31.00;62.80;;;;;;6161044;23;20494;-90
2021/09/10 09:01:16;;;;;;;7.40;6.80;;;31.10;61.70;;;;;;6168667;23;20518;-90
2021/09/10 09:03:44;;;;;;;7.00;6.40;;;31.10;59.90;;;;;;6161345;23;20424;-90
2021/09/10 09:06:14;;;;;;;7.20;6.60;;;30.90;60.00;;;;;;6162558;23;20533;-91
2021/09/10 09:08:46;;;;;;;8.30;7.60;;;31.00;59.80;;;;;;6161977;23;20434;-91
2021/09/10 09:11:17;;;;;;;7.40;6.90;;;31.30;59.40;;;;;;6161725;23;20434;-91
2021/09/10 09:13:45;;;;;;;7.23;6.73;;;30.90;58.80;;;;;;6163274;23;20411;-90
2021/09/10 09:16:23;;;;;;;8.30;7.43;;;31.40;59.10;;;;;;6171243;23;20422;-91
2021/09/10 09:18:52;;;;;;;8.70;6.97;;;32.90;57.60;;;;;;6165176;23;20454;-88
2021/09/10 09:21:28;;;;;;;7.33;6.73;;;34.50;55.00;;;;;;6160020;23;20485;-89
2021/09/10 09:23:56;;;;;;;7.90;7.20;;;36.20;51.70;;;;;;6160214;23;20430;-89
2021/09/10 09:26:26;;;;;;;7.50;6.83;;;37.20;48.00;;;;;;6161412;23;20391;-89
2021/09/10 09:29:04;;;;;;;7.43;6.80;;;36.90;47.00;;;;;;6162144;23;20528;-89
2021/09/10 09:31:31;;;;;;;7.70;7.17;;;35.40;48.70;;;;;;6165936;23;20399;-92
2021/09/10 09:34:00;;;;;;;8.40;7.80;;;34.10;51.00;;;;;;6183547;23;20455;-91
2021/09/10 09:36:30;;;;;;;8.40;7.70;;;33.90;52.00;;;;;;6164918;23;20399;-91
2021/09/10 09:38:58;;;;;;;9.70;8.80;;;35.00;50.50;;;;;;6159876;23;20466;-91
2021/09/10 09:41:26;;;;;;;7.70;7.20;;;34.70;50.20;;;;;;6159021;23;20446;-91
2021/09/10 09:44:03;;;;;;;8.43;7.73;;;35.20;50.20;;;;;;6162499;23;20418;-90
2021/09/10 09:46:32;;;;;;;8.93;8.27;;;35.50;49.20;;;;;;6161838;23;20465;-91
2021/09/10 09:49:10;;;;;;;10.23;7.60;;;36.20;48.70;;;;;;6162151;23;20441;-91
2021/09/10 09:51:57;;;;;;;8.20;7.70;;;37.00;46.50;;;;;;6163529;23;20423;-91
2021/09/10 09:54:27;;;;;;;8.57;7.90;;;37.70;45.70;;;;;;6167681;23;20379;-91
2021/09/10 09:56:55;;;;;;;9.00;8.30;;;38.60;44.20;;;;;;6160423;23;20502;-91
2021/09/10 09:59:22;;;;;;;8.40;7.70;;;39.30;43.70;;;;;;6165480;23;20710;-91
2021/09/10 10:01:56;;;;;;;8.33;7.63;;;39.30;41.80;;;;;;6180570;23;20406;-94
2021/09/10 10:04:23;;;;;;;8.50;7.80;;;38.70;42.60;;;;;;6181762;23;20422;-91
2021/09/10 10:06:54;;;;;;;8.03;7.33;;;37.10;43.60;;;;;;6175369;23;20402;-92
2021/09/10 10:09:24;;;;;;;7.93;7.40;;;35.70;45.70;;;;;;6183576;23;20442;-92
2021/09/10 10:11:57;;;;;;;8.83;7.87;;;35.80;47.10;;;;;;6174062;23;20426;-91
2021/09/10 10:14:32;;;;;;;7.70;7.00;;;36.30;46.70;;;;;;6161116;23;20407;-91
2021/09/10 10:17:01;;;;;;;8.23;7.63;;;36.80;44.70;;;;;;6158526;23;20413;-91
2021/09/10 10:19:44;;;;;;;8.70;8.00;;;36.30;44.90;;;;;;6158599;23;20450;-91
2021/09/10 10:22:14;;;;;;;9.30;8.40;;;35.50;46.70;;;;;;6162833;23;20415;-91
2021/09/10 10:24:44;;;;;;;9.93;8.73;;;34.00;48.60;;;;;;6170227;23;20452;-91
2021/09/10 10:27:38;;;;;;;8.57;7.87;;;34.70;49.30;;;;;;6160390;23;20411;-91
2021/09/10 10:30:07;;;;;;;7.80;6.97;;;35.80;47.50;;;;;;6158746;23;20482;-92
2021/09/10 10:32:37;;;;;;;8.53;7.67;;;37.90;45.10;;;;;;6159337;23;20421;-91
2021/09/10 10:35:22;;;;;;;8.53;7.80;;;39.10;42.20;;;;;;6159995;23;20422;-91
2021/09/10 10:37:53;;;;;;;8.37;7.67;;;37.60;42.50;;;;;;6158833;23;20477;-91
2021/09/10 10:40:37;;;;;;;8.63;7.83;;;36.40;44.70;;;;;;6159622;23;20438;-91
2021/09/10 10:43:07;;;;;;;7.77;7.27;;;38.10;42.80;;;;;;6164524;23;20395;-91
2021/09/10 10:46:16;;;;;;;7.80;7.20;;;37.00;41.80;;;;;;6161903;23;20398;-91
2021/09/10 10:48:47;;;;;;;7.57;7.07;;;37.20;43.50;;;;;;6160770;23;20487;-92
2021/09/10 10:51:41;;;;;;;7.70;7.10;;;37.60;42.60;;;;;;6170974;23;20403;-90
2021/09/10 10:54:18;;;;;;;7.57;6.73;;;35.70;43.70;;;;;;6160185;23;20677;-91
2021/09/10 10:56:49;;;;;;;8.77;7.70;;;35.00;45.90;;;;;;6157533;23;20513;-90
2021/09/10 10:59:56;;;;;;;9.33;8.63;;;33.30;48.30;;;;;;6158751;23;20762;-91
2021/09/10 11:02:32;;;;;;;9.77;9.03;;;33.60;50.20;;;;;;6159170;23;20414;-92
2021/09/10 11:05:02;;;;;;;8.13;7.47;;;36.30;46.30;;;;;;6157783;23;20744;-91
2021/09/10 11:07:31;;;;;;;7.80;7.20;;;38.40;43.00;;;;;;6158266;23;20467;-91
2021/09/10 11:10:00;;;;;;;8.10;7.30;;;39.20;41.10;;;;;;6161957;23;20410;-91
2021/09/10 11:12:28;;;;;;;8.00;7.40;;;39.00;40.60;;;;;;6163408;23;20410;-91
2021/09/10 11:14:54;;;;;;;7.33;6.73;;;39.50;40.00;;;;;;6159812;23;20417;-90
2021/09/10 11:17:26;;;;;;;8.00;7.30;;;38.70;40.30;;;;;;6175770;23;20405;-93
2021/09/10 11:19:54;;;;;;;7.57;7.07;;;37.10;41.20;;;;;;6166768;23;20449;-91
2021/09/10 11:22:23;;;;;;;7.80;7.20;;;36.00;44.30;;;;;;6158329;23;20479;-89
2021/09/10 11:24:50;;;;;;;7.37;6.87;;;35.10;45.20;;;;;;6157408;23;20881;-89
2021/09/10 11:27:27;;;;;;;8.03;7.10;;;35.40;44.60;;;;;;6158173;23;20421;-91
2021/09/10 11:29:54;;;;;;;8.07;7.47;;;34.40;45.90;;;;;;6157283;23;20517;-91
2021/09/10 11:32:25;;;;;;;7.90;7.40;;;33.20;48.60;;;;;;6157744;23;20422;-91
2021/09/10 11:34:53;;;;;;;7.47;6.90;;;33.80;48.90;;;;;;6160723;23;20932;-91
2021/09/10 11:37:27;;;;;;;7.73;7.13;;;33.80;46.70;;;;;;6165070;23;20391;-91
2021/09/10 11:39:54;;;;;;;21.83;7.87;;;33.50;47.30;;;;;;6159339;23;20411;-90
2021/09/10 11:42:37;;;;;;;8.10;7.40;;;33.60;48.70;;;;;;6162363;23;20414;-90
2021/09/10 11:45:07;;;;;;;8.60;7.90;;;33.50;47.20;;;;;;6162132;23;20501;-90
2021/09/10 11:47:34;;;;;;;7.70;7.00;;;33.70;47.70;;;;;;6161629;23;20450;-90
2021/09/10 11:50:03;;;;;;;8.73;8.03;;;33.60;47.50;;;;;;6162185;23;20471;-91
2021/09/10 11:52:32;;;;;;;8.77;8.07;;;33.80;48.50;;;;;;6159107;23;20417;-91
2021/09/10 11:55:10;;;;;;;7.93;7.33;;;33.70;48.70;;;;;;6158516;23;20423;-90
2021/09/10 11:57:39;;;;;;;7.50;6.90;;;34.00;48.10;;;;;;6163057;23;20467;-91
2021/09/10 12:00:07;;;;;;;8.20;7.50;;;34.40;47.00;;;;;;6177472;23;20438;-89
2021/09/10 12:02:34;;;;;;;8.60;7.90;;;35.00;47.00;;;;;;6171644;23;20769;-90
2021/09/10 12:05:04;;;;;;;7.80;7.30;;;34.80;46.40;;;;;;6162362;23;20403;-91
2021/09/10 12:07:32;;;;;;;9.07;8.47;;;34.30;47.40;;;;;;6169379;23;20442;-92
2021/09/10 12:10:01;;;;;;;9.67;8.97;;;34.10;49.40;;;;;;6181847;23;20478;-92
2021/09/10 12:12:39;;;;;;;8.20;7.63;;;33.90;49.60;;;;;;6172023;23;20422;-90
2021/09/10 12:15:08;;;;;;;7.67;7.03;;;33.70;49.50;;;;;;6161890;23;20407;-91
2021/09/10 12:17:37;;;;;;;9.60;8.80;;;32.50;50.00;;;;;;6159583;23;20419;-91
2021/09/10 12:20:10;;;;;;;8.50;7.67;;;31.40;51.90;;;;;;6133931;23;20447;-92
2021/09/10 12:22:40;;;;;;;8.73;8.13;;;30.90;53.60;;;;;;6160340;23;20379;-91
2021/09/10 12:25:32;;;;;;;9.23;8.43;;;30.50;54.30;;;;;;6159548;23;20721;-90
2021/09/10 12:28:15;;;;;;;8.70;8.03;;;30.00;55.30;;;;;;6163013;23;20464;-90
2021/09/10 12:30:44;;;;;;;8.40;7.70;;;29.70;56.30;;;;;;6174435;23;20391;-90
2021/09/10 12:33:14;;;;;;;9.27;8.57;;;29.10;56.80;;;;;;6182446;23;20409;-92
2021/09/10 12:35:41;;;;;;;8.77;8.17;;;28.90;58.30;;;;;;6179209;23;20406;-92
2021/09/10 12:38:10;;;;;;;8.20;7.60;;;30.10;57.00;;;;;;6173756;23;20431;-91
2021/09/10 12:40:39;;;;;;;9.30;8.60;;;31.40;54.20;;;;;;6173208;23;20505;-90
2021/09/10 12:43:11;;;;;;;8.80;8.10;;;31.50;53.60;;;;;;6171545;23;20445;-92
2021/09/10 12:45:39;;;;;;;8.47;7.83;;;33.20;52.00;;;;;;6160290;23;20451;-89
2021/09/10 12:48:06;;;;;;;9.67;8.97;;;33.80;50.00;;;;;;6157933;23;20431;-89